Time;durP1;ratioP1;P1;durP2;ratioP2;P2;SDS_P1;SDS_P2;PMS_P1;PMS_P2;Temp;Humidity;BMP_temperature;BMP_pressure;BME280_temperature;BME280_humidity;BME280_pressure;Samples;Min_cycle;Max_cycle;Signal;HPM_P1;HPM_P2
2020/12/03 00:02:02;;;;;;;44.53;20.65;;;0.20;98.00;;;;;;5032657;28;20049;-69
2020/12/03 00:04:28;;;;;;;50.30;23.42;;;0.20;97.70;;;;;;5032929;28;20049;-69
2020/12/03 00:06:59;;;;;;;61.85;26.67;;;0.20;98.00;;;;;;5032484;28;20113;-69
2020/12/03 00:09:26;;;;;;;49.83;23.02;;;0.30;97.60;;;;;;5032164;28;20470;-70
2020/12/03 00:11:57;;;;;;;45.97;22.52;;;0.20;97.60;;;;;;5032909;28;20057;-69
2020/12/03 00:14:24;;;;;;;42.20;19.40;;;0.20;97.60;;;;;;5032236;28;20052;-69
2020/12/03 00:16:52;;;;;;;48.50;21.15;;;0.30;97.40;;;;;;5031909;28;20077;-69
2020/12/03 00:19:22;;;;;;;41.58;18.20;;;0.20;97.40;;;;;;5032347;28;20046;-69
2020/12/03 00:21:59;;;;;;;42.05;19.27;;;0.20;97.60;;;;;;5032955;28;20057;-69
2020/12/03 00:24:28;;;;;;;45.05;20.23;;;0.20;97.70;;;;;;5032340;28;20057;-70
2020/12/03 00:26:55;;;;;;;45.70;21.48;;;0.10;97.70;;;;;;5030996;28;20309;-69
2020/12/03 00:29:22;;;;;;;45.38;19.40;;;0.10;97.80;;;;;;5032377;28;20521;-70
2020/12/03 00:31:51;;;;;;;46.22;20.38;;;0.20;97.80;;;;;;5031993;28;20164;-69
2020/12/03 00:34:18;;;;;;;55.35;26.48;;;0.20;97.70;;;;;;5031223;28;20443;-70
2020/12/03 00:36:45;;;;;;;46.65;20.23;;;0.30;97.50;;;;;;5032324;28;20052;-70
2020/12/03 00:39:16;;;;;;;50.72;23.58;;;0.30;97.50;;;;;;5032081;28;20085;-70
2020/12/03 00:41:51;;;;;;;47.20;24.23;;;0.30;97.50;;;;;;5031697;28;20077;-70
2020/12/03 00:44:19;;;;;;;61.88;26.30;;;0.30;97.60;;;;;;5029229;28;20053;-70
2020/12/03 00:46:46;;;;;;;60.13;24.63;;;0.30;97.40;;;;;;5028430;28;20140;-70
2020/12/03 00:49:15;;;;;;;50.78;25.65;;;0.30;97.50;;;;;;5029437;28;20128;-70
2020/12/03 00:51:42;;;;;;;48.90;23.63;;;0.30;97.60;;;;;;5031750;28;20152;-69
2020/12/03 00:54:10;;;;;;;55.88;26.63;;;0.30;97.80;;;;;;5027408;28;20147;-70
2020/12/03 00:56:36;;;;;;;48.70;23.83;;;0.30;97.70;;;;;;5029870;28;20121;-69
2020/12/03 00:59:02;;;;;;;53.45;22.80;;;0.30;97.60;;;;;;5028068;28;20073;-70
2020/12/03 01:01:29;;;;;;;40.13;19.60;;;0.30;97.50;;;;;;5030325;28;20119;-69
2020/12/03 01:03:55;;;;;;;50.38;22.58;;;0.20;97.60;;;;;;5029235;28;20244;-70
2020/12/03 01:06:22;;;;;;;48.45;23.63;;;0.30;97.50;;;;;;5031698;28;20128;-70
2020/12/03 01:08:48;;;;;;;41.72;18.73;;;0.30;97.70;;;;;;5027893;28;20071;-70
2020/12/03 01:11:18;;;;;;;43.72;18.92;;;0.30;97.60;;;;;;5029313;28;20103;-70
2020/12/03 01:13:45;;;;;;;42.33;20.88;;;0.30;97.40;;;;;;5030417;28;20139;-70
2020/12/03 01:16:13;;;;;;;48.45;22.83;;;0.30;97.60;;;;;;5030343;28;20145;-69
2020/12/03 01:18:39;;;;;;;41.20;20.30;;;0.20;97.60;;;;;;5030244;28;20073;-69
2020/12/03 01:21:06;;;;;;;48.03;22.95;;;0.20;97.80;;;;;;5030808;28;20041;-69
2020/12/03 01:23:32;;;;;;;41.85;20.08;;;0.30;97.70;;;;;;5029545;28;20137;-70
2020/12/03 01:25:58;;;;;;;41.00;19.23;;;0.30;97.70;;;;;;5025584;28;20172;-70
2020/12/03 01:28:25;;;;;;;45.83;20.25;;;0.30;97.70;;;;;;5030283;28;20053;-70
2020/12/03 01:30:51;;;;;;;55.03;26.70;;;0.20;97.80;;;;;;5029619;28;20070;-70
2020/12/03 01:33:17;;;;;;;38.50;18.75;;;0.20;97.70;;;;;;5030752;28;20459;-69
2020/12/03 01:35:45;;;;;;;38.15;19.35;;;0.30;97.50;;;;;;5030302;28;20677;-68
2020/12/03 01:38:11;;;;;;;38.75;20.15;;;0.20;97.70;;;;;;5029873;28;20136;-69
2020/12/03 01:40:39;;;;;;;39.65;19.83;;;0.20;97.80;;;;;;5029054;28;20087;-69
2020/12/03 01:43:05;;;;;;;44.05;22.48;;;0.30;97.70;;;;;;5030536;28;20424;-69
2020/12/03 01:45:50;;;;;;;45.42;22.77;;;0.30;97.60;;;;;;5029401;28;20056;-70
2020/12/03 01:48:33;;;;;;;53.83;23.08;;;0.30;97.60;;;;;;5015473;28;20073;-69
2020/12/03 01:51:27;;;;;;;43.05;18.75;;;0.30;97.80;;;;;;5030389;28;20060;-71
2020/12/03 01:53:59;;;;;;;38.97;17.85;;;0.30;97.50;;;;;;5008482;28;20037;-70
2020/12/03 01:56:31;;;;;;;46.90;21.42;;;0.30;97.30;;;;;;5020726;28;20129;-69
2020/12/03 01:59:01;;;;;;;48.30;21.38;;;0.30;97.50;;;;;;5029697;28;20041;-69
2020/12/03 02:01:29;;;;;;;49.42;22.35;;;0.20;97.70;;;;;;5028686;28;20156;-70
2020/12/03 02:03:55;;;;;;;50.35;25.45;;;0.30;97.80;;;;;;5030141;28;20050;-70
2020/12/03 02:06:35;;;;;;;49.35;23.30;;;0.40;97.60;;;;;;5028422;28;20085;-69
2020/12/03 02:09:02;;;;;;;50.60;24.58;;;0.30;97.60;;;;;;5028047;28;20135;-69
2020/12/03 02:11:28;;;;;;;49.63;24.27;;;0.30;97.80;;;;;;5030324;28;20140;-69
2020/12/03 02:14:04;;;;;;;39.58;19.33;;;0.30;97.60;;;;;;5028853;28;20069;-69
2020/12/03 02:16:39;;;;;;;43.25;21.75;;;0.30;97.50;;;;;;5029133;28;20057;-69
2020/12/03 02:19:17;;;;;;;43.47;20.40;;;0.30;97.60;;;;;;5028162;28;20073;-69
2020/12/03 02:21:45;;;;;;;45.45;21.77;;;0.30;97.70;;;;;;5030364;28;20045;-70
2020/12/03 02:24:11;;;;;;;38.85;19.48;;;0.30;97.70;;;;;;5028346;28;20534;-70
2020/12/03 02:26:47;;;;;;;50.03;21.27;;;0.30;97.70;;;;;;5029505;28;20089;-69
2020/12/03 02:29:17;;;;;;;43.35;22.55;;;0.30;97.70;;;;;;5028157;28;20123;-69
2020/12/03 02:31:43;;;;;;;45.53;22.77;;;0.30;97.70;;;;;;5028517;28;20115;-70
2020/12/03 02:34:10;;;;;;;46.78;23.60;;;0.30;97.70;;;;;;5030110;28;20136;-69
2020/12/03 02:36:36;;;;;;;46.20;22.58;;;0.30;97.60;;;;;;5027170;28;20558;-69
2020/12/03 02:39:03;;;;;;;44.13;23.48;;;0.40;97.40;;;;;;5028608;28;20065;-69
2020/12/03 02:41:29;;;;;;;48.33;23.95;;;0.40;97.40;;;;;;5029517;28;20144;-69
2020/12/03 02:43:56;;;;;;;49.92;23.65;;;0.40;97.40;;;;;;5028583;28;20514;-69
2020/12/03 02:46:22;;;;;;;49.63;25.27;;;0.40;97.50;;;;;;5028807;28;20152;-69
2020/12/03 02:48:49;;;;;;;41.50;20.52;;;0.40;97.60;;;;;;5029353;28;20154;-69
2020/12/03 02:51:16;;;;;;;46.85;24.65;;;0.30;97.50;;;;;;5028722;28;20165;-70
2020/12/03 02:53:42;;;;;;;39.55;19.85;;;0.40;97.60;;;;;;5028850;28;20051;-70
2020/12/03 02:56:11;;;;;;;43.65;22.90;;;0.40;97.40;;;;;;5028896;28;20132;-69
2020/12/03 02:58:37;;;;;;;44.30;23.13;;;0.40;97.60;;;;;;5027649;28;20124;-69
2020/12/03 03:01:04;;;;;;;41.90;22.67;;;0.30;97.60;;;;;;5026661;28;20470;-70
2020/12/03 03:03:30;;;;;;;53.08;25.63;;;0.30;97.70;;;;;;5029471;28;20140;-69
2020/12/03 03:05:57;;;;;;;46.17;23.77;;;0.30;97.70;;;;;;5028250;28;20045;-70
2020/12/03 03:08:24;;;;;;;41.63;22.50;;;0.40;97.70;;;;;;5028282;28;20057;-69
2020/12/03 03:10:50;;;;;;;44.75;22.33;;;0.40;97.40;;;;;;5029600;28;20513;-69
2020/12/03 03:13:16;;;;;;;45.72;23.63;;;0.40;97.70;;;;;;5027267;28;20132;-69
2020/12/03 03:15:43;;;;;;;48.35;24.80;;;0.40;97.70;;;;;;5027549;28;20144;-69
2020/12/03 03:18:09;;;;;;;49.67;24.85;;;0.40;97.40;;;;;;5028093;28;20126;-69
2020/12/03 03:20:37;;;;;;;43.58;22.88;;;0.40;97.50;;;;;;5027902;28;20442;-69
2020/12/03 03:23:05;;;;;;;39.47;20.25;;;0.50;97.30;;;;;;5027722;28;20498;-69
2020/12/03 03:25:32;;;;;;;45.80;23.17;;;0.50;97.20;;;;;;5028138;28;20569;-70
2020/12/03 03:27:58;;;;;;;48.65;23.63;;;0.50;97.20;;;;;;5029205;28;20056;-69
2020/12/03 03:30:24;;;;;;;48.30;24.98;;;0.50;97.30;;;;;;5026574;28;20136;-69
2020/12/03 03:32:51;;;;;;;40.13;21.55;;;0.50;97.20;;;;;;5028014;28;20137;-69
2020/12/03 03:35:19;;;;;;;50.35;26.60;;;0.50;97.10;;;;;;5027417;28;20212;-69
2020/12/03 03:37:47;;;;;;;41.45;23.45;;;0.50;97.30;;;;;;5026954;28;20132;-70
2020/12/03 03:40:14;;;;;;;48.67;25.63;;;0.50;97.30;;;;;;5028996;28;20466;-69
2020/12/03 03:42:41;;;;;;;50.25;24.65;;;0.50;97.40;;;;;;5028384;28;20132;-69
2020/12/03 03:45:09;;;;;;;38.75;20.23;;;0.50;97.40;;;;;;5026879;28;20084;-70
2020/12/03 03:47:38;;;;;;;39.58;20.50;;;0.40;97.40;;;;;;5028665;28;20049;-70
2020/12/03 03:50:06;;;;;;;50.85;26.92;;;0.40;97.50;;;;;;5027800;28;20111;-70
2020/12/03 03:52:32;;;;;;;38.95;22.33;;;0.50;97.30;;;;;;5028823;28;20041;-69
2020/12/03 03:54:59;;;;;;;46.30;23.88;;;0.50;97.40;;;;;;5024987;28;20042;-69
2020/12/03 03:57:26;;;;;;;56.72;26.77;;;0.50;97.50;;;;;;5027864;28;20045;-69
2020/12/03 03:59:52;;;;;;;53.03;26.08;;;0.60;97.30;;;;;;5027837;28;20535;-69
2020/12/03 04:02:20;;;;;;;50.55;27.73;;;0.50;97.20;;;;;;5026634;28;20045;-69
2020/12/03 04:04:48;;;;;;;50.42;25.63;;;0.50;97.50;;;;;;5028589;28;20506;-69
2020/12/03 04:07:16;;;;;;;47.08;23.55;;;0.40;97.50;;;;;;5027458;28;20128;-70
2020/12/03 04:09:42;;;;;;;47.60;23.90;;;0.50;97.40;;;;;;5027488;28;20135;-70
2020/12/03 04:12:09;;;;;;;52.78;26.85;;;0.50;97.50;;;;;;5028291;28;20132;-69
2020/12/03 04:14:35;;;;;;;50.55;25.85;;;0.50;97.60;;;;;;5026172;28;20365;-70
2020/12/03 04:17:01;;;;;;;59.03;29.20;;;0.50;97.50;;;;;;5026115;28;20103;-69
2020/12/03 04:19:28;;;;;;;56.15;28.35;;;0.50;97.50;;;;;;5028859;28;20073;-69
2020/12/03 04:21:54;;;;;;;50.03;25.85;;;0.40;97.50;;;;;;5026700;28;20081;-69
2020/12/03 04:24:20;;;;;;;57.90;29.85;;;0.50;97.60;;;;;;5027681;28;20072;-70
2020/12/03 04:26:47;;;;;;;49.83;26.55;;;0.50;97.60;;;;;;5026631;28;20081;-69
2020/12/03 04:29:16;;;;;;;54.05;29.75;;;0.50;97.60;;;;;;5026770;28;20124;-69
2020/12/03 04:31:44;;;;;;;55.28;28.40;;;0.50;97.50;;;;;;5025758;28;20137;-69
2020/12/03 04:34:12;;;;;;;49.22;26.00;;;0.60;97.60;;;;;;5028475;28;20041;-69
2020/12/03 04:36:39;;;;;;;53.03;26.88;;;0.50;97.60;;;;;;5027057;28;20506;-69
2020/12/03 04:39:06;;;;;;;50.65;26.55;;;0.60;97.50;;;;;;5025903;28;20257;-69
2020/12/03 04:41:33;;;;;;;50.55;26.27;;;0.60;97.50;;;;;;5026769;28;20137;-69
2020/12/03 04:44:07;;;;;;;58.40;28.77;;;0.60;97.60;;;;;;5027976;28;20053;-69
2020/12/03 04:46:42;;;;;;;54.03;27.65;;;0.60;97.50;;;;;;5029667;28;20414;-69
2020/12/03 04:49:36;;;;;;;51.53;27.60;;;0.50;97.60;;;;;;5031144;28;20128;-69
2020/12/03 04:52:23;;;;;;;48.58;25.35;;;0.50;97.60;;;;;;5031779;28;20211;-69
2020/12/03 04:55:14;;;;;;;53.85;27.08;;;0.50;97.60;;;;;;5026051;28;20111;-69
2020/12/03 04:58:15;;;;;;;38.65;19.95;;;0.50;97.70;;;;;;5030154;28;20124;-68
2020/12/03 05:00:47;;;;;;;42.92;21.35;;;0.40;97.70;;;;;;5029030;28;20046;-69
2020/12/03 05:03:20;;;;;;;46.70;26.13;;;0.40;97.80;;;;;;5030239;28;20049;-69
2020/12/03 05:06:10;;;;;;;;;;;0.50;97.80;;;;;;5030609;28;20107;-69
2020/12/03 05:09:15;;;;;;;38.00;19.05;;;0.50;97.60;;;;;;5003653;28;19922;-69
2020/12/03 05:11:45;;;;;;;39.50;20.38;;;0.50;97.50;;;;;;5021375;28;20144;-69
2020/12/03 05:14:40;;;;;;;48.38;25.88;;;0.50;97.60;;;;;;5028553;28;20049;-71
2020/12/03 05:17:31;;;;;;;42.13;22.63;;;0.50;97.60;;;;;;5023638;28;20068;-70
2020/12/03 05:20:13;;;;;;;43.30;22.45;;;0.50;97.60;;;;;;5031803;28;20076;-69
2020/12/03 05:22:41;;;;;;;40.95;19.98;;;0.50;97.60;;;;;;5030035;28;20132;-70
2020/12/03 05:25:16;;;;;;;45.75;23.52;;;0.50;97.50;;;;;;5011693;28;20551;-70
2020/12/03 05:27:44;;;;;;;48.38;25.77;;;0.50;97.50;;;;;;5021683;28;20049;-70
2020/12/03 05:30:11;;;;;;;50.50;28.73;;;0.50;97.50;;;;;;5028123;28;20049;-71
2020/12/03 05:32:37;;;;;;;45.42;25.00;;;0.60;97.40;;;;;;5030572;28;20558;-69
2020/12/03 05:35:06;;;;;;;45.75;22.98;;;0.60;97.30;;;;;;5030460;28;20124;-70
2020/12/03 05:37:34;;;;;;;45.58;22.73;;;0.50;97.20;;;;;;5030777;28;20046;-70
2020/12/03 05:40:01;;;;;;;46.05;24.05;;;0.60;97.20;;;;;;5030116;28;20080;-69
2020/12/03 05:42:34;;;;;;;43.00;24.27;;;0.50;97.20;;;;;;5030017;28;20136;-69
2020/12/03 05:45:26;;;;;;;38.78;23.00;;;0.60;97.20;;;;;;5023600;28;20059;-70
2020/12/03 05:47:52;;;;;;;40.55;21.67;;;0.60;97.00;;;;;;5030204;28;20076;-70
2020/12/03 05:50:41;;;;;;;35.60;18.60;;;0.60;97.00;;;;;;5029953;28;20049;-69
2020/12/03 05:53:20;;;;;;;31.63;17.55;;;0.60;97.00;;;;;;5030009;28;20092;-69
2020/12/03 05:55:48;;;;;;;34.90;18.02;;;0.60;97.00;;;;;;5027646;28;20052;-69
2020/12/03 05:58:32;;;;;;;41.45;23.10;;;0.60;97.10;;;;;;5028702;28;20088;-70
2020/12/03 06:01:27;;;;;;;40.33;22.08;;;0.50;97.10;;;;;;5024285;28;20116;-69
2020/12/03 06:04:27;;;;;;;41.40;21.35;;;0.60;96.80;;;;;;5018751;28;20079;-69
2020/12/03 06:07:13;;;;;;;39.95;20.40;;;0.60;96.70;;;;;;5028299;28;20478;-69
2020/12/03 06:10:00;;;;;;;37.58;19.77;;;0.60;96.90;;;;;;5033922;28;20088;-69
2020/12/03 06:13:01;;;;;;;40.50;21.63;;;0.60;96.80;;;;;;5037732;28;20066;-69
2020/12/03 06:15:46;;;;;;;36.10;19.25;;;0.70;96.80;;;;;;5025016;28;20427;-69
2020/12/03 06:18:27;;;;;;;36.63;18.20;;;0.60;96.90;;;;;;5028693;28;20128;-69
2020/12/03 06:21:31;;;;;;;34.40;19.20;;;0.60;96.90;;;;;;5027451;28;20504;-69
2020/12/03 06:24:00;;;;;;;41.13;21.63;;;0.70;96.90;;;;;;5023693;28;20107;-69
2020/12/03 06:26:48;;;;;;;29.58;15.73;;;0.60;96.90;;;;;;5028465;28;20052;-69
2020/12/03 06:29:23;;;;;;;38.05;19.33;;;0.60;96.70;;;;;;5028522;28;20128;-69
2020/12/03 06:32:27;;;;;;;33.83;17.42;;;0.60;96.80;;;;;;5028822;28;20056;-69
2020/12/03 06:35:23;;;;;;;38.97;20.20;;;0.60;96.80;;;;;;5027799;28;20049;-69
2020/12/03 06:38:07;;;;;;;38.22;21.35;;;0.60;97.00;;;;;;5029808;28;20105;-69
2020/12/03 06:40:39;;;;;;;36.72;21.42;;;0.60;97.00;;;;;;5028816;28;20042;-69
2020/12/03 06:43:37;;;;;;;41.33;21.85;;;0.60;96.90;;;;;;5028771;28;20045;-69
2020/12/03 06:46:31;;;;;;;33.17;18.25;;;0.60;97.00;;;;;;5026560;28;20140;-68
2020/12/03 06:49:00;;;;;;;41.40;21.48;;;0.60;96.70;;;;;;5028518;28;20141;-69
2020/12/03 06:52:17;;;;;;;42.00;21.65;;;0.60;96.80;;;;;;5029849;28;20054;-69
2020/12/03 06:55:02;;;;;;;37.78;21.60;;;0.60;96.80;;;;;;4990889;28;20038;-69
2020/12/03 06:57:47;;;;;;;41.38;21.70;;;0.60;96.90;;;;;;5029214;28;20049;-69
2020/12/03 07:00:31;;;;;;;35.78;19.77;;;0.60;96.90;;;;;;5022088;28;20497;-69
2020/12/03 07:03:25;;;;;;;39.72;20.65;;;0.60;96.80;;;;;;5010225;28;20050;-69
2020/12/03 07:06:09;;;;;;;36.35;19.45;;;0.60;96.80;;;;;;5025581;28;20459;-70
2020/12/03 07:08:57;;;;;;;36.58;20.90;;;0.70;96.80;;;;;;5029282;28;20120;-70
2020/12/03 07:11:53;;;;;;;32.78;16.90;;;0.60;96.70;;;;;;5010042;28;20494;-70
2020/12/03 07:14:45;;;;;;;37.60;18.88;;;0.60;96.60;;;;;;5027791;28;20100;-70
2020/12/03 07:17:23;;;;;;;27.10;15.27;;;0.60;96.70;;;;;;5028904;28;20084;-70
2020/12/03 07:20:17;;;;;;;38.35;20.67;;;0.70;96.50;;;;;;5027078;28;20127;-69
2020/12/03 07:23:19;;;;;;;39.95;21.70;;;0.70;96.60;;;;;;5028028;28;20054;-70
2020/12/03 07:25:48;;;;;;;35.63;18.70;;;0.70;96.80;;;;;;5016027;28;20075;-70
2020/12/03 07:28:25;;;;;;;40.63;21.95;;;0.60;96.80;;;;;;5029349;28;20651;-70
2020/12/03 07:30:58;;;;;;;35.75;20.45;;;0.70;96.50;;;;;;5019999;28;20115;-70
2020/12/03 07:33:38;;;;;;;40.65;21.02;;;0.70;96.60;;;;;;5027819;28;20141;-69
2020/12/03 07:36:53;;;;;;;35.70;19.23;;;0.70;96.70;;;;;;5023237;28;20466;-70
2020/12/03 07:39:25;;;;;;;37.30;20.08;;;0.70;96.80;;;;;;4982713;28;20545;-70
2020/12/03 07:42:02;;;;;;;40.13;23.02;;;0.80;96.70;;;;;;5026416;28;20045;-69
2020/12/03 07:44:34;;;;;;;37.20;21.02;;;0.80;96.60;;;;;;5025698;28;20129;-70
2020/12/03 07:47:34;;;;;;;38.58;22.38;;;0.80;96.60;;;;;;5029952;28;20073;-70
2020/12/03 07:50:20;;;;;;;39.20;20.70;;;0.90;96.70;;;;;;5027962;28;20088;-70
2020/12/03 07:53:15;;;;;;;39.15;21.50;;;0.90;96.50;;;;;;5028904;28;20041;-70
2020/12/03 07:55:42;;;;;;;33.78;19.85;;;0.90;96.40;;;;;;5027164;28;20132;-70
2020/12/03 07:58:40;;;;;;;35.40;19.80;;;0.90;96.30;;;;;;5027708;28;20092;-70
2020/12/03 08:01:27;;;;;;;43.53;25.23;;;0.80;96.50;;;;;;5027136;28;20457;-70
2020/12/03 08:03:54;;;;;;;38.47;20.02;;;0.80;96.40;;;;;;5017678;28;20041;-69
2020/12/03 08:06:22;;;;;;;40.33;21.77;;;0.90;96.40;;;;;;5027911;28;20126;-70
2020/12/03 08:08:56;;;;;;;36.33;19.52;;;0.90;96.50;;;;;;5027345;28;20053;-70
2020/12/03 08:11:46;;;;;;;36.30;19.95;;;0.90;96.30;;;;;;5028896;28;20152;-70
2020/12/03 08:14:41;;;;;;;36.70;19.70;;;0.90;96.20;;;;;;5028056;28;20048;-70
2020/12/03 08:17:16;;;;;;;38.22;20.70;;;0.90;96.30;;;;;;5008228;28;20042;-71
2020/12/03 08:19:47;;;;;;;35.10;19.00;;;0.90;96.20;;;;;;5032230;28;20050;-69
2020/12/03 08:22:33;;;;;;;26.27;12.45;;;0.90;96.00;;;;;;5029875;28;20045;-69
2020/12/03 08:25:21;;;;;;;29.52;17.17;;;0.90;96.00;;;;;;5031779;28;20052;-69
2020/12/03 08:27:58;;;;;;;23.75;12.55;;;0.90;96.20;;;;;;5031963;28;20235;-69
2020/12/03 08:30:46;;;;;;;27.27;14.70;;;0.90;96.00;;;;;;5029703;28;20050;-70
2020/12/03 08:33:26;;;;;;;26.73;14.38;;;0.90;96.00;;;;;;5028647;28;20073;-70
2020/12/03 08:36:05;;;;;;;31.05;16.80;;;0.90;95.80;;;;;;5032334;28;20128;-69
2020/12/03 08:38:38;;;;;;;30.35;15.70;;;1.10;95.50;;;;;;5030522;28;20144;-70
2020/12/03 08:41:12;;;;;;;25.77;13.60;;;1.10;95.50;;;;;;5032230;28;20077;-70
2020/12/03 08:43:58;;;;;;;20.95;11.65;;;1.10;95.20;;;;;;5030906;28;20132;-70
2020/12/03 08:46:33;;;;;;;18.67;10.25;;;1.10;95.20;;;;;;5029808;28;20127;-69
2020/12/03 08:49:00;;;;;;;26.55;15.55;;;1.10;95.30;;;;;;5029707;28;20057;-69
2020/12/03 08:51:27;;;;;;;31.10;14.80;;;1.20;95.20;;;;;;5030874;28;20045;-69
2020/12/03 08:53:53;;;;;;;24.35;11.82;;;1.20;95.10;;;;;;5031984;28;20128;-70
2020/12/03 08:56:34;;;;;;;21.88;9.90;;;1.30;94.90;;;;;;5030898;28;20053;-71
2020/12/03 08:59:20;;;;;;;19.52;8.98;;;1.40;94.80;;;;;;5031267;28;20048;-69
2020/12/03 09:02:06;;;;;;;24.58;12.82;;;1.30;94.60;;;;;;5019723;28;20049;-70
2020/12/03 09:04:42;;;;;;;26.42;12.98;;;1.40;94.70;;;;;;5031461;28;20593;-69
2020/12/03 09:07:13;;;;;;;21.85;11.77;;;1.50;94.50;;;;;;5030473;28;20046;-70
2020/12/03 09:09:44;;;;;;;16.48;9.30;;;1.50;94.20;;;;;;5031255;28;20077;-70
2020/12/03 09:12:14;;;;;;;22.52;12.25;;;1.50;94.00;;;;;;5029219;28;20077;-70
2020/12/03 09:14:42;;;;;;;21.55;10.60;;;1.50;94.20;;;;;;5028078;28;20079;-70
2020/12/03 09:17:12;;;;;;;21.75;12.20;;;1.50;94.20;;;;;;5029227;28;20130;-69
2020/12/03 09:19:39;;;;;;;22.83;11.10;;;1.50;94.20;;;;;;5031240;28;20140;-70
2020/12/03 09:22:07;;;;;;;20.27;11.88;;;1.60;94.10;;;;;;5029143;28;20045;-69
2020/12/03 09:24:35;;;;;;;20.95;11.32;;;1.60;94.20;;;;;;5030385;28;20045;-69
2020/12/03 09:27:03;;;;;;;19.05;10.50;;;1.60;94.30;;;;;;5030960;28;20118;-70
2020/12/03 09:29:30;;;;;;;19.13;11.23;;;1.70;93.80;;;;;;5028331;28;20565;-70
2020/12/03 09:32:16;;;;;;;18.00;9.98;;;1.70;94.00;;;;;;5028002;28;20045;-70
2020/12/03 09:34:45;;;;;;;20.17;9.23;;;1.70;94.00;;;;;;5030852;28;20111;-69
2020/12/03 09:37:12;;;;;;;18.98;10.52;;;1.60;93.80;;;;;;5029581;28;20063;-70
2020/12/03 09:39:39;;;;;;;19.23;10.10;;;1.60;93.70;;;;;;5031052;28;20041;-70
2020/12/03 09:42:12;;;;;;;21.63;10.45;;;1.60;93.80;;;;;;5030977;28;20132;-69
2020/12/03 09:44:40;;;;;;;18.67;9.68;;;1.60;93.90;;;;;;5030539;28;20080;-69
2020/12/03 09:47:14;;;;;;;17.98;10.85;;;1.60;93.90;;;;;;5030807;28;20041;-70
2020/12/03 09:49:43;;;;;;;22.05;12.10;;;1.60;93.70;;;;;;5011484;28;20137;-69
2020/12/03 09:52:11;;;;;;;17.17;10.52;;;1.70;93.70;;;;;;5026895;28;20122;-69
2020/12/03 09:54:39;;;;;;;21.95;11.95;;;1.70;93.80;;;;;;5030284;28;20204;-69
2020/12/03 09:57:09;;;;;;;22.30;12.43;;;1.80;93.80;;;;;;5028787;28;20187;-70
2020/12/03 09:59:39;;;;;;;22.02;12.27;;;1.80;93.60;;;;;;5030438;28;20045;-70
2020/12/03 10:02:15;;;;;;;21.42;10.82;;;1.90;93.80;;;;;;5030333;28;20135;-70
2020/12/03 10:05:28;;;;;;;23.02;12.57;;;2.00;93.40;;;;;;5029988;28;20463;-70
2020/12/03 10:08:03;;;;;;;23.58;11.93;;;2.00;93.40;;;;;;5020117;28;20509;-69
2020/12/03 10:10:41;;;;;;;21.05;12.20;;;2.00;93.40;;;;;;5030668;28;20053;-70
2020/12/03 10:13:16;;;;;;;21.65;10.60;;;2.00;93.20;;;;;;5028690;28;20128;-69
2020/12/03 10:15:59;;;;;;;19.90;10.00;;;2.00;93.20;;;;;;5030775;28;20377;-69
2020/12/03 10:18:51;;;;;;;19.27;11.20;;;2.00;93.00;;;;;;5029557;28;20085;-70
2020/12/03 10:21:25;;;;;;;16.40;7.93;;;2.10;93.30;;;;;;5029016;28;20146;-70
2020/12/03 10:24:06;;;;;;;15.80;8.82;;;2.10;92.90;;;;;;5027066;28;20418;-70
2020/12/03 10:26:52;;;;;;;17.15;9.27;;;2.00;93.00;;;;;;5029685;28;20140;-69
2020/12/03 10:29:34;;;;;;;20.40;10.80;;;2.00;92.80;;;;;;5028482;28;20057;-70
2020/12/03 10:32:11;;;;;;;18.33;9.63;;;2.10;93.10;;;;;;5030373;28;20252;-69
2020/12/03 10:34:42;;;;;;;22.48;11.35;;;2.10;92.90;;;;;;5029127;28;20045;-70
2020/12/03 10:37:24;;;;;;;20.30;10.35;;;2.10;93.10;;;;;;5027563;28;20539;-70
2020/12/03 10:40:01;;;;;;;21.20;12.13;;;2.20;92.70;;;;;;5021094;28;20049;-70
2020/12/03 10:42:36;;;;;;;22.58;11.25;;;2.20;93.20;;;;;;5029244;28;20524;-70
2020/12/03 10:45:07;;;;;;;23.00;10.98;;;2.30;92.90;;;;;;5029751;28;20132;-70
2020/12/03 10:47:47;;;;;;;18.33;11.48;;;2.40;92.60;;;;;;5028887;28;20136;-70
2020/12/03 10:50:18;;;;;;;20.25;11.73;;;2.40;92.80;;;;;;5029295;28;20092;-70
2020/12/03 10:52:46;;;;;;;19.77;12.00;;;2.50;92.70;;;;;;5011462;28;20061;-70
2020/12/03 10:55:17;;;;;;;18.50;11.40;;;2.60;92.70;;;;;;5028305;28;20053;-71
2020/12/03 10:58:01;;;;;;;20.67;12.68;;;2.70;92.60;;;;;;5029469;28;20045;-70
2020/12/03 11:00:28;;;;;;;21.90;12.52;;;2.70;92.30;;;;;;5029408;28;20133;-69
2020/12/03 11:03:02;;;;;;;20.17;12.35;;;2.70;92.30;;;;;;5029186;28;20113;-70
2020/12/03 11:05:28;;;;;;;19.60;11.80;;;2.70;92.50;;;;;;5028805;28;20130;-70
2020/12/03 11:07:57;;;;;;;19.17;10.27;;;2.60;92.30;;;;;;5027034;28;20125;-70
2020/12/03 11:10:25;;;;;;;16.95;8.88;;;2.60;92.30;;;;;;5028244;28;20101;-69
2020/12/03 11:12:52;;;;;;;19.08;10.80;;;2.50;92.40;;;;;;5028840;28;20072;-69
2020/12/03 11:15:24;;;;;;;20.35;11.63;;;2.40;92.70;;;;;;5028790;28;20450;-70
2020/12/03 11:18:02;;;;;;;19.52;11.30;;;2.40;92.80;;;;;;5026779;28;20045;-70
2020/12/03 11:21:04;;;;;;;21.67;12.82;;;2.40;93.00;;;;;;5027595;28;20125;-70
2020/12/03 11:23:32;;;;;;;21.95;11.82;;;2.50;92.90;;;;;;5028868;28;20119;-70
2020/12/03 11:26:06;;;;;;;18.73;10.88;;;2.50;92.90;;;;;;5029034;28;20104;-70
2020/12/03 11:28:37;;;;;;;18.48;10.75;;;2.50;92.80;;;;;;5026443;28;20134;-70
2020/12/03 11:31:06;;;;;;;22.52;11.65;;;2.40;93.10;;;;;;5027783;28;20483;-70
2020/12/03 11:33:38;;;;;;;18.23;10.73;;;2.40;93.20;;;;;;5028403;28;20068;-70
2020/12/03 11:36:09;;;;;;;20.75;12.75;;;2.40;93.30;;;;;;5009493;28;20054;-69
2020/12/03 11:38:36;;;;;;;20.58;12.05;;;2.40;93.60;;;;;;5020602;28;20510;-69
2020/12/03 11:41:08;;;;;;;18.80;11.15;;;2.40;93.70;;;;;;5028549;28;20198;-69
2020/12/03 11:49:06;;;;;;;18.58;10.15;;;2.30;93.80;;;;;;5028450;28;20118;-70
2020/12/03 11:51:36;;;;;;;15.68;9.30;;;2.30;93.80;;;;;;5028383;28;20088;-69
2020/12/03 11:54:04;;;;;;;21.38;10.68;;;2.30;94.00;;;;;;5032078;28;20454;-69
2020/12/03 11:56:32;;;;;;;18.52;12.45;;;2.20;94.20;;;;;;5032881;28;20132;-69
2020/12/03 11:59:21;;;;;;;19.30;11.38;;;2.30;94.40;;;;;;5032712;28;20060;-70
2020/12/03 12:01:55;;;;;;;20.08;11.98;;;2.30;94.40;;;;;;5020959;28;20263;-70
2020/12/03 12:12:09;;;;;;;22.05;11.73;;;2.40;94.30;;;;;;5032116;28;20128;-69
2020/12/03 12:14:36;;;;;;;22.92;11.73;;;2.30;94.40;;;;;;5032413;28;20092;-70
2020/12/03 12:17:02;;;;;;;20.13;13.00;;;2.40;94.40;;;;;;5031778;28;20216;-70
2020/12/03 12:19:29;;;;;;;18.48;12.07;;;2.50;94.40;;;;;;5032087;28;20107;-70
2020/12/03 12:21:57;;;;;;;22.02;12.20;;;2.60;94.50;;;;;;5032738;28;20076;-69
2020/12/03 12:24:24;;;;;;;21.35;12.05;;;2.70;94.10;;;;;;5032531;28;20054;-70
2020/12/03 12:26:50;;;;;;;18.08;11.63;;;2.70;93.80;;;;;;5032550;28;20141;-70
2020/12/03 12:29:17;;;;;;;20.33;12.63;;;2.60;93.90;;;;;;5032230;28;20059;-70
2020/12/03 12:31:43;;;;;;;21.13;12.65;;;2.60;93.80;;;;;;5032401;28;20597;-70
2020/12/03 12:34:09;;;;;;;19.10;11.63;;;2.60;94.00;;;;;;5031362;28;20041;-70
2020/12/03 12:36:36;;;;;;;21.38;11.50;;;2.60;93.90;;;;;;5031504;28;20438;-70
2020/12/03 12:39:03;;;;;;;20.63;12.02;;;2.70;93.80;;;;;;5031884;28;20118;-69
2020/12/03 12:41:30;;;;;;;23.23;13.02;;;2.70;93.90;;;;;;5032072;28;20049;-70
2020/12/03 12:43:58;;;;;;;21.42;12.07;;;2.70;93.70;;;;;;5032289;28;20060;-69
2020/12/03 12:46:25;;;;;;;22.13;13.60;;;2.60;94.00;;;;;;5032076;28;20553;-69
2020/12/03 12:48:52;;;;;;;21.10;12.52;;;2.60;94.00;;;;;;5031145;28;20092;-69
2020/12/03 12:51:19;;;;;;;20.77;12.40;;;2.50;94.10;;;;;;5030247;28;20475;-70
2020/12/03 12:53:46;;;;;;;24.77;13.63;;;2.60;94.10;;;;;;5031656;28;20051;-70
2020/12/03 12:56:15;;;;;;;23.38;13.48;;;2.60;94.10;;;;;;5030660;28;20052;-70
2020/12/03 12:58:41;;;;;;;24.85;13.48;;;2.70;94.00;;;;;;5031546;28;20128;-70
2020/12/03 13:01:08;;;;;;;23.55;14.15;;;2.70;93.90;;;;;;5029754;28;20041;-70
2020/12/03 13:03:34;;;;;;;21.45;13.90;;;2.70;94.00;;;;;;5029858;28;20045;-69
2020/12/03 13:06:00;;;;;;;24.48;13.13;;;2.60;93.80;;;;;;5030176;28;20132;-70
2020/12/03 13:08:27;;;;;;;21.83;13.85;;;2.60;94.00;;;;;;5029843;28;20041;-69
2020/12/03 13:10:54;;;;;;;26.15;14.68;;;2.50;94.20;;;;;;5029100;28;20402;-70
2020/12/03 13:13:27;;;;;;;26.33;14.45;;;2.60;94.50;;;;;;5010645;28;20112;-70
2020/12/03 13:15:54;;;;;;;;;;;2.50;94.30;;;;;;5028193;28;20566;-70
2020/12/03 13:18:20;;;;;;;25.55;14.57;;;2.50;94.30;;;;;;5030007;28;20400;-70
2020/12/03 13:20:48;;;;;;;29.45;17.25;;;2.60;94.10;;;;;;5025187;28;20127;-70
2020/12/03 13:23:14;;;;;;;24.45;14.35;;;2.70;94.50;;;;;;5031104;28;20160;-70
2020/12/03 13:25:41;;;;;;;34.60;19.42;;;2.70;94.30;;;;;;5032647;28;20056;-70